Time;durP1;ratioP1;P1;durP2;ratioP2;P2;SDS_P1;SDS_P2;PMS_P1;PMS_P2;Temp;Humidity;BMP_temperature;BMP_pressure;BME280_temperature;BME280_humidity;BME280_pressure;Samples;Min_cycle;Max_cycle;Signal;HPM_P1;HPM_P2
2023/05/31 00:01:52;;;;;;;5.93;3.40;;;;;;;;;;773613;180;905536;-71
2023/05/31 00:04:18;;;;;;;10.40;4.10;;;;;;;;;;768387;180;926425;-64
2023/05/31 00:06:44;;;;;;;10.60;4.80;;;;;;;;;;766135;180;915522;-64
2023/05/31 00:09:10;;;;;;;10.70;4.63;;;;;;;;;;775313;180;716831;-71
2023/05/31 00:11:35;;;;;;;9.17;4.87;;;;;;;;;;772148;180;619142;-69
2023/05/31 00:14:01;;;;;;;9.27;4.60;;;;;;;;;;771418;180;883334;-71
2023/05/31 00:16:27;;;;;;;10.80;4.37;;;;;;;;;;769603;181;886138;-64
2023/05/31 00:18:53;;;;;;;12.33;4.60;;;;;;;;;;777434;180;818200;-71
2023/05/31 00:21:19;;;;;;;10.73;4.73;;;;;;;;;;773356;180;943988;-64
2023/05/31 00:23:45;;;;;;;9.97;4.47;;;;;;;;;;777284;177;619368;-70
2023/05/31 00:26:10;;;;;;;8.80;4.50;;;;;;;;;;777878;180;617228;-64
2023/05/31 00:28:36;;;;;;;8.70;5.03;;;;;;;;;;776550;179;623011;-70
2023/05/31 00:31:03;;;;;;;9.67;5.30;;;;;;;;;;779116;180;623128;-64
2023/05/31 00:33:28;;;;;;;12.10;5.10;;;;;;;;;;779041;181;622631;-70
2023/05/31 00:35:54;;;;;;;5.23;3.20;;;;;;;;;;776250;180;634145;-63
2023/05/31 00:38:20;;;;;;;5.67;3.70;;;;;;;;;;770267;179;915413;-70
2023/05/31 00:40:47;;;;;;;11.90;4.67;;;;;;;;;;765866;180;915073;-69
2023/05/31 00:43:11;;;;;;;10.40;4.80;;;;;;;;;;774930;179;923839;-64
2023/05/31 00:45:37;;;;;;;10.80;4.57;;;;;;;;;;765116;179;918043;-71
2023/05/31 00:48:03;;;;;;;9.03;4.63;;;;;;;;;;770096;180;919284;-69
2023/05/31 00:50:29;;;;;;;9.20;5.20;;;;;;;;;;773412;180;815492;-63
2023/05/31 00:52:55;;;;;;;11.40;5.10;;;;;;;;;;774284;180;916044;-63
2023/05/31 00:55:21;;;;;;;8.30;4.30;;;;;;;;;;773075;180;919217;-63
2023/05/31 00:57:47;;;;;;;12.20;4.33;;;;;;;;;;777397;180;919775;-63
2023/05/31 01:00:14;;;;;;;6.93;4.60;;;;;;;;;;771817;180;917720;-64
2023/05/31 01:02:41;;;;;;;9.03;5.53;;;;;;;;;;769023;180;918972;-70
2023/05/31 01:05:05;;;;;;;8.13;4.20;;;;;;;;;;770691;180;919685;-64
2023/05/31 01:07:31;;;;;;;9.30;4.73;;;;;;;;;;774426;180;920420;-63
2023/05/31 01:09:57;;;;;;;11.03;4.60;;;;;;;;;;765610;180;917851;-70
2023/05/31 01:12:28;;;;;;;12.00;5.47;;;;;;;;;;766993;179;919303;-69
2023/05/31 01:15:01;;;;;;;11.82;4.70;;;;;;;;;;773994;180;921368;-71
2023/05/31 01:17:30;;;;;;;8.90;4.40;;;;;;;;;;774408;181;890419;-71
2023/05/31 01:19:56;;;;;;;6.97;3.87;;;;;;;;;;766212;181;814025;-63
2023/05/31 01:22:23;;;;;;;6.50;3.73;;;;;;;;;;774682;180;817919;-69
2023/05/31 01:24:51;;;;;;;8.07;4.10;;;;;;;;;;773507;179;920558;-70
2023/05/31 01:27:16;;;;;;;11.63;5.27;;;;;;;;;;771889;180;818214;-64
2023/05/31 01:29:42;;;;;;;8.30;4.10;;;;;;;;;;771485;180;822388;-69
2023/05/31 01:32:08;;;;;;;8.87;3.87;;;;;;;;;;771857;180;817977;-63
2023/05/31 01:34:34;;;;;;;8.63;4.60;;;;;;;;;;770137;181;922276;-69
2023/05/31 01:36:59;;;;;;;11.07;4.37;;;;;;;;;;765521;179;919753;-64
2023/05/31 01:39:25;;;;;;;9.97;5.13;;;;;;;;;;771648;181;918630;-63
2023/05/31 01:41:51;;;;;;;8.03;4.27;;;;;;;;;;780629;180;820223;-70
2023/05/31 01:44:18;;;;;;;6.80;3.73;;;;;;;;;;775184;179;921200;-63
2023/05/31 01:46:43;;;;;;;14.60;5.32;;;;;;;;;;774171;180;915109;-63
2023/05/31 01:49:09;;;;;;;7.00;3.80;;;;;;;;;;777214;179;918896;-63
2023/05/31 01:51:34;;;;;;;12.03;4.77;;;;;;;;;;773723;180;796462;-63
2023/05/31 01:54:00;;;;;;;7.90;4.93;;;;;;;;;;773208;180;814926;-64
2023/05/31 01:56:28;;;;;;;12.63;4.68;;;;;;;;;;772803;180;902646;-68
2023/05/31 01:58:53;;;;;;;9.80;5.73;;;;;;;;;;770285;180;907588;-63
2023/05/31 02:01:18;;;;;;;9.23;5.17;;;;;;;;;;759522;181;939865;-69
2023/05/31 02:03:44;;;;;;;7.30;4.40;;;;;;;;;;758420;184;917460;-64
2023/05/31 02:06:13;;;;;;;7.30;4.50;;;;;;;;;;754994;184;876220;-70
2023/05/31 02:08:39;;;;;;;8.73;4.63;;;;;;;;;;755195;183;920994;-71
2023/05/31 02:11:04;;;;;;;7.50;4.15;;;;;;;;;;752809;182;1021638;-69
2023/05/31 02:13:30;;;;;;;8.47;4.63;;;;;;;;;;765017;184;813354;-69
2023/05/31 02:15:57;;;;;;;10.52;4.55;;;;;;;;;;770402;180;917540;-64
2023/05/31 02:18:22;;;;;;;14.00;5.50;;;;;;;;;;770653;180;920253;-64
2023/05/31 02:20:48;;;;;;;9.73;5.83;;;;;;;;;;768715;181;918486;-69
2023/05/31 02:23:14;;;;;;;13.63;4.77;;;;;;;;;;768523;173;918337;-69
2023/05/31 02:25:40;;;;;;;14.33;5.23;;;;;;;;;;755386;184;920355;-70
2023/05/31 02:28:05;;;;;;;8.07;5.10;;;;;;;;;;741902;184;918991;-70
2023/05/31 02:30:31;;;;;;;15.23;5.47;;;;;;;;;;745264;187;920929;-71
2023/05/31 02:32:59;;;;;;;14.40;7.33;;;;;;;;;;734683;188;919331;-73
2023/05/31 02:35:23;;;;;;;8.40;5.07;;;;;;;;;;738160;187;919153;-72
2023/05/31 02:37:49;;;;;;;8.43;5.27;;;;;;;;;;744535;185;893226;-72
2023/05/31 02:40:15;;;;;;;9.70;5.40;;;;;;;;;;737543;188;916080;-72
2023/05/31 02:42:40;;;;;;;9.80;4.93;;;;;;;;;;736813;186;916066;-71
2023/05/31 02:45:07;;;;;;;15.32;5.68;;;;;;;;;;742343;187;1007373;-72
2023/05/31 02:47:33;;;;;;;7.70;4.97;;;;;;;;;;748805;187;916553;-72
2023/05/31 02:49:59;;;;;;;9.63;5.77;;;;;;;;;;737405;185;913025;-72
2023/05/31 02:52:26;;;;;;;11.50;4.10;;;;;;;;;;741070;186;913195;-73
2023/05/31 02:54:50;;;;;;;11.73;5.50;;;;;;;;;;744747;187;805408;-72
2023/05/31 02:57:16;;;;;;;9.23;4.60;;;;;;;;;;733020;187;911451;-72
2023/05/31 02:59:43;;;;;;;13.53;5.57;;;;;;;;;;735738;187;1013604;-72
2023/05/31 03:02:09;;;;;;;9.60;4.97;;;;;;;;;;743212;187;912821;-72
2023/05/31 03:04:35;;;;;;;8.20;4.77;;;;;;;;;;736348;186;923421;-72
2023/05/31 03:07:01;;;;;;;9.57;5.00;;;;;;;;;;737762;187;913921;-71
2023/05/31 03:09:27;;;;;;;8.90;5.37;;;;;;;;;;737709;172;913485;-73
2023/05/31 03:11:53;;;;;;;9.33;5.23;;;;;;;;;;754225;185;972790;-73
2023/05/31 03:14:19;;;;;;;14.50;5.40;;;;;;;;;;742492;187;948647;-72
2023/05/31 03:16:44;;;;;;;8.03;4.80;;;;;;;;;;735366;189;1014277;-71
2023/05/31 03:19:12;;;;;;;8.60;5.20;;;;;;;;;;739724;189;914488;-72
2023/05/31 03:21:36;;;;;;;15.43;5.23;;;;;;;;;;732330;190;915401;-72
2023/05/31 03:24:02;;;;;;;8.70;4.13;;;;;;;;;;732875;190;916383;-72
2023/05/31 03:26:28;;;;;;;8.00;4.30;;;;;;;;;;737302;190;916646;-72
2023/05/31 03:28:54;;;;;;;9.10;4.63;;;;;;;;;;729110;190;917545;-71
2023/05/31 03:31:20;;;;;;;9.53;5.43;;;;;;;;;;782945;175;917212;-71
2023/05/31 03:33:45;;;;;;;9.70;5.83;;;;;;;;;;786313;177;919174;-72
2023/05/31 03:36:11;;;;;;;7.20;4.30;;;;;;;;;;787131;176;918166;-73
2023/05/31 03:38:37;;;;;;;11.30;4.65;;;;;;;;;;784770;177;922139;-73
2023/05/31 03:41:03;;;;;;;10.80;5.33;;;;;;;;;;772638;180;919456;-72
2023/05/31 03:43:29;;;;;;;12.37;5.00;;;;;;;;;;789246;176;921040;-72
2023/05/31 03:45:55;;;;;;;10.77;5.70;;;;;;;;;;772637;176;919771;-72
2023/05/31 03:48:20;;;;;;;11.10;5.20;;;;;;;;;;780303;176;920052;-72
2023/05/31 03:50:46;;;;;;;14.00;6.07;;;;;;;;;;783329;177;919568;-72
2023/05/31 03:53:12;;;;;;;9.57;5.50;;;;;;;;;;780538;176;919156;-72
2023/05/31 03:55:38;;;;;;;10.43;6.73;;;;;;;;;;784301;176;918887;-73
2023/05/31 03:58:04;;;;;;;19.47;8.13;;;;;;;;;;791456;176;916958;-73
2023/05/31 04:00:30;;;;;;;18.55;7.05;;;;;;;;;;796254;175;906296;-72
2023/05/31 04:02:56;;;;;;;11.03;5.87;;;;;;;;;;778923;176;923406;-73
2023/05/31 04:05:21;;;;;;;18.30;6.20;;;;;;;;;;795917;175;919108;-71
2023/05/31 04:07:47;;;;;;;9.33;5.80;;;;;;;;;;790899;175;921175;-73
2023/05/31 04:10:13;;;;;;;10.50;5.63;;;;;;;;;;793289;176;921297;-73
2023/05/31 04:12:39;;;;;;;15.68;6.80;;;;;;;;;;769973;179;1130882;-73
2023/05/31 04:15:05;;;;;;;14.83;7.10;;;;;;;;;;793460;176;921089;-73
2023/05/31 04:17:31;;;;;;;14.13;6.20;;;;;;;;;;795745;175;818868;-72
2023/05/31 04:19:57;;;;;;;8.80;5.87;;;;;;;;;;795703;175;919009;-72
2023/05/31 04:22:23;;;;;;;10.57;6.00;;;;;;;;;;800603;175;817658;-73
2023/05/31 04:24:49;;;;;;;10.60;6.80;;;;;;;;;;772013;180;1121628;-73
2023/05/31 04:27:18;;;;;;;13.60;6.75;;;;;;;;;;796034;176;815572;-73
2023/05/31 04:29:41;;;;;;;10.77;6.22;;;;;;;;;;769763;179;914616;-72
2023/05/31 04:32:07;;;;;;;16.10;7.30;;;;;;;;;;777543;178;970404;-73
2023/05/31 04:34:36;;;;;;;8.27;5.97;;;;;;;;;;783154;176;934977;-73
2023/05/31 04:36:58;;;;;;;11.93;6.13;;;;;;;;;;775892;179;918370;-73
2023/05/31 04:39:24;;;;;;;12.60;5.43;;;;;;;;;;792212;176;781644;-73
2023/05/31 04:41:50;;;;;;;15.87;5.77;;;;;;;;;;786700;176;919432;-72
2023/05/31 04:44:16;;;;;;;19.73;6.97;;;;;;;;;;785069;176;918794;-70
2023/05/31 04:46:42;;;;;;;10.80;6.30;;;;;;;;;;796585;176;917114;-71
2023/05/31 04:49:08;;;;;;;13.30;6.87;;;;;;;;;;785469;177;919235;-70
2023/05/31 04:51:33;;;;;;;9.80;5.60;;;;;;;;;;786219;176;918179;-71
2023/05/31 04:53:59;;;;;;;8.80;5.07;;;;;;;;;;778822;177;918918;-71
2023/05/31 04:56:25;;;;;;;11.50;5.20;;;;;;;;;;769129;178;919772;-71
2023/05/31 04:58:51;;;;;;;7.63;5.13;;;;;;;;;;782179;176;919026;-71
2023/05/31 05:01:17;;;;;;;8.63;5.73;;;;;;;;;;787341;176;635651;-71
2023/05/31 05:03:43;;;;;;;13.40;5.07;;;;;;;;;;796869;175;894993;-71
2023/05/31 05:06:12;;;;;;;9.57;4.93;;;;;;;;;;790882;173;918462;-71
2023/05/31 05:08:37;;;;;;;12.23;5.63;;;;;;;;;;787329;176;1025491;-70
2023/05/31 05:11:03;;;;;;;9.80;5.33;;;;;;;;;;779120;179;918807;-72
2023/05/31 05:13:30;;;;;;;9.30;6.93;;;;;;;;;;772453;180;919669;-71
2023/05/31 05:15:55;;;;;;;12.30;6.13;;;;;;;;;;792050;175;918624;-71
2023/05/31 05:18:21;;;;;;;11.50;5.67;;;;;;;;;;799823;175;918556;-71
2023/05/31 05:20:47;;;;;;;17.23;5.80;;;;;;;;;;792126;175;918906;-72
2023/05/31 05:23:12;;;;;;;12.70;5.17;;;;;;;;;;794165;175;918790;-72
2023/05/31 05:25:38;;;;;;;11.83;5.33;;;;;;;;;;795759;175;918829;-70
2023/05/31 05:28:04;;;;;;;10.03;5.73;;;;;;;;;;799131;175;1020629;-71
2023/05/31 05:30:30;;;;;;;10.40;6.00;;;;;;;;;;774802;180;918268;-72
2023/05/31 05:32:56;;;;;;;13.23;5.23;;;;;;;;;;767430;179;1122519;-71
2023/05/31 05:35:22;;;;;;;6.93;4.90;;;;;;;;;;801135;175;918846;-72
2023/05/31 05:37:48;;;;;;;10.80;5.10;;;;;;;;;;769866;179;919331;-72
2023/05/31 05:40:13;;;;;;;8.70;4.93;;;;;;;;;;794923;175;920364;-72
2023/05/31 05:42:39;;;;;;;12.30;6.00;;;;;;;;;;793248;175;643200;-72
2023/05/31 05:45:07;;;;;;;8.10;4.90;;;;;;;;;;788191;176;921099;-72
2023/05/31 05:47:32;;;;;;;8.37;4.60;;;;;;;;;;786739;176;922249;-67
2023/05/31 05:49:58;;;;;;;12.10;5.00;;;;;;;;;;766200;181;920627;-66
2023/05/31 05:52:24;;;;;;;9.83;5.17;;;;;;;;;;769458;181;874559;-62
2023/05/31 05:54:50;;;;;;;7.85;4.15;;;;;;;;;;755820;182;919846;-66
2023/05/31 05:57:16;;;;;;;10.70;4.57;;;;;;;;;;753759;183;820942;-63
2023/05/31 05:59:41;;;;;;;10.23;5.10;;;;;;;;;;755213;184;913984;-66
2023/05/31 06:02:07;;;;;;;12.33;4.80;;;;;;;;;;756726;182;921028;-63
2023/05/31 06:04:33;;;;;;;9.23;5.10;;;;;;;;;;756340;185;920343;-62
2023/05/31 06:06:59;;;;;;;14.10;5.20;;;;;;;;;;754743;185;916669;-62
2023/05/31 06:09:25;;;;;;;9.87;4.67;;;;;;;;;;755315;184;919607;-62
2023/05/31 06:11:51;;;;;;;15.90;4.47;;;;;;;;;;755554;184;919292;-62
2023/05/31 06:14:17;;;;;;;9.03;4.40;;;;;;;;;;751838;185;921553;-66
2023/05/31 06:16:42;;;;;;;9.00;4.63;;;;;;;;;;771867;179;919294;-68
2023/05/31 06:19:08;;;;;;;8.87;4.87;;;;;;;;;;763890;182;919713;-63
2023/05/31 06:21:35;;;;;;;12.83;6.70;;;;;;;;;;764210;182;919597;-67
2023/05/31 06:24:00;;;;;;;9.00;4.07;;;;;;;;;;773495;181;961197;-67
2023/05/31 06:26:26;;;;;;;10.57;5.10;;;;;;;;;;768206;181;917733;-63
2023/05/31 06:28:52;;;;;;;11.07;4.50;;;;;;;;;;763837;182;919080;-67
2023/05/31 06:31:17;;;;;;;8.00;4.53;;;;;;;;;;762701;183;915832;-68
2023/05/31 06:33:43;;;;;;;7.60;3.80;;;;;;;;;;767509;181;919329;-68
2023/05/31 06:36:09;;;;;;;9.97;5.17;;;;;;;;;;769128;180;916108;-68
2023/05/31 06:38:35;;;;;;;11.50;4.27;;;;;;;;;;764620;182;920815;-63
2023/05/31 06:41:01;;;;;;;9.23;4.50;;;;;;;;;;759502;182;918088;-63
2023/05/31 06:43:27;;;;;;;13.83;5.03;;;;;;;;;;760676;180;919408;-66
2023/05/31 06:45:52;;;;;;;13.23;5.40;;;;;;;;;;770648;181;917653;-63
2023/05/31 06:48:18;;;;;;;7.80;4.63;;;;;;;;;;772429;182;919486;-63
2023/05/31 06:50:44;;;;;;;18.37;5.20;;;;;;;;;;766468;181;918589;-67
2023/05/31 06:53:12;;;;;;;9.13;4.40;;;;;;;;;;756801;184;931284;-63
2023/05/31 06:55:36;;;;;;;11.50;5.40;;;;;;;;;;766039;181;908457;-63
2023/05/31 06:58:02;;;;;;;12.40;5.07;;;;;;;;;;765656;182;919644;-62
2023/05/31 07:00:28;;;;;;;13.23;4.93;;;;;;;;;;767329;180;921379;-67
2023/05/31 07:02:53;;;;;;;11.73;5.77;;;;;;;;;;771266;181;919478;-67
2023/05/31 07:05:19;;;;;;;9.23;4.67;;;;;;;;;;770791;181;920282;-62
2023/05/31 07:07:45;;;;;;;18.10;4.90;;;;;;;;;;768374;181;920171;-62
2023/05/31 07:10:11;;;;;;;14.80;5.40;;;;;;;;;;766825;181;915262;-63
2023/05/31 07:12:37;;;;;;;13.97;4.73;;;;;;;;;;769781;181;918589;-62
2023/05/31 07:15:03;;;;;;;9.17;5.20;;;;;;;;;;760052;182;919045;-67
2023/05/31 07:17:29;;;;;;;9.30;4.97;;;;;;;;;;766988;181;918802;-62
2023/05/31 07:19:55;;;;;;;15.57;4.30;;;;;;;;;;774510;180;815825;-67
2023/05/31 07:22:22;;;;;;;9.73;4.03;;;;;;;;;;768983;181;919034;-66
2023/05/31 07:24:46;;;;;;;6.90;3.10;;;;;;;;;;766519;181;918603;-64
2023/05/31 07:27:12;;;;;;;10.00;4.80;;;;;;;;;;775913;180;918620;-67
2023/05/31 07:29:38;;;;;;;11.43;4.10;;;;;;;;;;762333;180;919347;-68
2023/05/31 07:32:04;;;;;;;12.47;4.70;;;;;;;;;;768194;180;920404;-61
2023/05/31 07:34:30;;;;;;;10.03;4.23;;;;;;;;;;770525;179;815130;-66
2023/05/31 07:36:57;;;;;;;11.67;3.80;;;;;;;;;;780158;177;919452;-62
2023/05/31 07:39:22;;;;;;;11.00;4.27;;;;;;;;;;765271;181;919219;-66
2023/05/31 07:41:48;;;;;;;10.40;4.20;;;;;;;;;;768770;181;917528;-63
2023/05/31 07:44:16;;;;;;;8.30;3.73;;;;;;;;;;774308;181;918337;-62
2023/05/31 07:46:39;;;;;;;7.20;3.20;;;;;;;;;;768843;181;914240;-69
2023/05/31 07:49:05;;;;;;;8.43;4.00;;;;;;;;;;768313;181;956549;-65
2023/05/31 07:51:31;;;;;;;8.67;3.90;;;;;;;;;;765937;181;883396;-67
2023/05/31 07:53:57;;;;;;;9.50;3.73;;;;;;;;;;766558;181;918972;-67
2023/05/31 07:56:23;;;;;;;9.40;3.80;;;;;;;;;;760148;181;920965;-70
2023/05/31 07:58:49;;;;;;;9.03;4.13;;;;;;;;;;768124;181;920171;-66
2023/05/31 08:01:15;;;;;;;9.63;3.97;;;;;;;;;;775388;181;919290;-69
2023/05/31 08:03:41;;;;;;;6.40;3.57;;;;;;;;;;759794;182;918619;-62
2023/05/31 08:06:07;;;;;;;6.97;2.83;;;;;;;;;;755044;183;912092;-62
2023/05/31 08:08:33;;;;;;;5.67;2.80;;;;;;;;;;769244;182;919811;-62
2023/05/31 08:10:58;;;;;;;7.93;4.30;;;;;;;;;;749848;184;920670;-67
2023/05/31 08:13:24;;;;;;;6.30;3.47;;;;;;;;;;761324;182;818460;-62
2023/05/31 08:15:51;;;;;;;7.60;3.03;;;;;;;;;;771654;181;919264;-62
2023/05/31 08:18:16;;;;;;;7.67;2.70;;;;;;;;;;768980;181;919802;-62
2023/05/31 08:20:42;;;;;;;9.20;3.58;;;;;;;;;;755589;181;920819;-63
2023/05/31 08:23:08;;;;;;;8.70;3.70;;;;;;;;;;774439;181;919391;-63
2023/05/31 08:25:33;;;;;;;7.13;3.10;;;;;;;;;;766578;181;919151;-67
2023/05/31 08:28:00;;;;;;;6.80;2.83;;;;;;;;;;766733;181;921276;-62
2023/05/31 08:30:25;;;;;;;8.10;4.03;;;;;;;;;;763051;182;817528;-70
2023/05/31 08:32:51;;;;;;;7.70;2.70;;;;;;;;;;767022;181;917147;-66
2023/05/31 08:35:17;;;;;;;12.93;3.23;;;;;;;;;;757882;185;937952;-67
2023/05/31 08:37:43;;;;;;;9.30;3.20;;;;;;;;;;750155;185;920221;-69
2023/05/31 08:40:09;;;;;;;6.90;3.50;;;;;;;;;;758360;184;917379;-69
2023/05/31 08:42:36;;;;;;;9.07;3.43;;;;;;;;;;753607;181;1019814;-68
2023/05/31 08:45:03;;;;;;;6.90;3.50;;;;;;;;;;762966;181;917353;-68
2023/05/31 08:47:29;;;;;;;9.50;3.40;;;;;;;;;;774053;181;919745;-67
2023/05/31 08:49:54;;;;;;;10.10;2.70;;;;;;;;;;769500;180;918952;-63
2023/05/31 08:52:20;;;;;;;8.27;2.10;;;;;;;;;;770144;181;919402;-68
2023/05/31 08:54:47;;;;;;;3.30;2.03;;;;;;;;;;762522;182;893264;-63
2023/05/31 08:57:12;;;;;;;10.50;3.30;;;;;;;;;;769875;182;922013;-63
2023/05/31 08:59:38;;;;;;;5.97;3.00;;;;;;;;;;756927;184;821717;-70
2023/05/31 09:02:04;;;;;;;7.57;2.57;;;;;;;;;;757389;184;919432;-63
2023/05/31 09:04:30;;;;;;;6.63;2.57;;;;;;;;;;772627;180;919086;-68
2023/05/31 09:06:56;;;;;;;7.60;2.40;;;;;;;;;;765582;181;921045;-69
2023/05/31 09:09:22;;;;;;;9.50;2.20;;;;;;;;;;762504;181;1013932;-63
2023/05/31 09:11:47;;;;;;;6.70;3.00;;;;;;;;;;771796;181;840275;-69
2023/05/31 09:14:13;;;;;;;11.60;3.57;;;;;;;;;;766247;182;816688;-62
2023/05/31 09:16:39;;;;;;;6.40;3.30;;;;;;;;;;764612;181;919205;-68
2023/05/31 09:19:05;;;;;;;9.00;4.10;;;;;;;;;;756224;183;920034;-65
2023/05/31 09:21:37;;;;;;;4.43;2.50;;;;;;;;;;766786;181;886594;-72
2023/05/31 09:24:03;;;;;;;6.67;2.73;;;;;;;;;;759437;182;926294;-63
2023/05/31 09:26:28;;;;;;;5.43;2.90;;;;;;;;;;764929;182;917953;-63
2023/05/31 09:28:54;;;;;;;5.43;2.60;;;;;;;;;;765429;182;912408;-63
2023/05/31 09:31:20;;;;;;;6.03;2.80;;;;;;;;;;766587;182;1022007;-62
2023/05/31 09:33:47;;;;;;;11.53;4.90;;;;;;;;;;765568;182;919463;-67
2023/05/31 09:36:12;;;;;;;6.43;2.97;;;;;;;;;;766250;182;916186;-63
2023/05/31 09:38:38;;;;;;;6.77;3.60;;;;;;;;;;777822;179;918474;-69
2023/05/31 09:41:09;;;;;;;6.53;3.77;;;;;;;;;;762742;181;920923;-65
2023/05/31 09:43:35;;;;;;;9.37;4.57;;;;;;;;;;765238;181;918202;-70
2023/05/31 09:46:01;;;;;;;3.87;2.03;;;;;;;;;;761030;181;917917;-71
2023/05/31 09:48:27;;;;;;;8.13;2.63;;;;;;;;;;763903;181;1022566;-64
2023/05/31 09:50:53;;;;;;;8.00;4.17;;;;;;;;;;766012;181;914509;-64
2023/05/31 09:53:19;;;;;;;12.00;2.97;;;;;;;;;;752738;183;1037713;-65
2023/05/31 09:55:45;;;;;;;7.13;3.20;;;;;;;;;;767844;177;916725;-72
2023/05/31 09:58:10;;;;;;;8.07;3.90;;;;;;;;;;767236;181;826427;-65
2023/05/31 10:00:36;;;;;;;13.10;4.90;;;;;;;;;;768496;180;871856;-71
2023/05/31 10:03:02;;;;;;;6.07;3.33;;;;;;;;;;761591;182;917098;-71
2023/05/31 10:05:28;;;;;;;9.13;3.77;;;;;;;;;;766603;180;918922;-72
2023/05/31 10:07:54;;;;;;;10.97;3.60;;;;;;;;;;768693;180;868635;-71
2023/05/31 10:10:20;;;;;;;6.50;3.80;;;;;;;;;;765088;181;919152;-75
2023/05/31 10:12:48;;;;;;;23.80;4.23;;;;;;;;;;765580;181;912072;-66
2023/05/31 10:15:14;;;;;;;9.37;4.20;;;;;;;;;;762154;181;916401;-65
2023/05/31 10:17:40;;;;;;;10.30;4.20;;;;;;;;;;762314;181;928366;-69
2023/05/31 10:20:07;;;;;;;6.27;3.77;;;;;;;;;;765721;181;917527;-71
2023/05/31 10:22:32;;;;;;;7.90;4.07;;;;;;;;;;756358;182;1125506;-70
2023/05/31 10:24:58;;;;;;;7.87;3.80;;;;;;;;;;765391;181;621022;-71
2023/05/31 10:27:28;;;;;;;7.17;3.17;;;;;;;;;;764880;184;711709;-75
2023/05/31 10:29:54;;;;;;;7.13;3.13;;;;;;;;;;757475;181;918998;-66
2023/05/31 10:32:20;;;;;;;6.83;3.87;;;;;;;;;;764387;180;918965;-74
2023/05/31 10:34:45;;;;;;;6.63;4.13;;;;;;;;;;762154;184;867684;-71
2023/05/31 10:37:11;;;;;;;14.27;3.70;;;;;;;;;;751682;184;918813;-71
2023/05/31 10:39:52;;;;;;;8.07;3.47;;;;;;;;;;755475;181;915539;-65
2023/05/31 10:42:20;;;;;;;5.60;3.10;;;;;;;;;;756649;181;918046;-65
2023/05/31 10:44:47;;;;;;;9.00;3.30;;;;;;;;;;767916;181;915703;-73
2023/05/31 10:47:12;;;;;;;8.20;3.30;;;;;;;;;;771624;180;918475;-65
2023/05/31 10:49:38;;;;;;;4.80;3.27;;;;;;;;;;766532;181;918899;-67
2023/05/31 10:52:04;;;;;;;7.05;3.25;;;;;;;;;;770819;180;816411;-65
2023/05/31 10:54:30;;;;;;;8.70;4.43;;;;;;;;;;765903;181;920310;-65
2023/05/31 10:56:56;;;;;;;9.13;3.13;;;;;;;;;;752402;183;840440;-65
2023/05/31 10:59:22;;;;;;;7.60;3.30;;;;;;;;;;751204;184;935095;-65
2023/05/31 11:01:48;;;;;;;8.57;3.93;;;;;;;;;;770068;181;921060;-72
2023/05/31 11:04:19;;;;;;;7.03;3.90;;;;;;;;;;763850;181;901284;-65
2023/05/31 11:06:45;;;;;;;7.63;3.83;;;;;;;;;;755198;184;918194;-65
2023/05/31 11:09:14;;;;;;;5.37;2.90;;;;;;;;;;769574;180;926831;-65
2023/05/31 11:11:44;;;;;;;8.43;4.17;;;;;;;;;;772535;181;917097;-66
2023/05/31 11:14:08;;;;;;;7.97;3.20;;;;;;;;;;754493;180;842610;-66
2023/05/31 11:16:34;;;;;;;10.17;3.57;;;;;;;;;;760519;181;919328;-65
2023/05/31 11:19:03;;;;;;;5.40;3.10;;;;;;;;;;753643;184;918327;-74
2023/05/31 11:21:35;;;;;;;11.03;3.43;;;;;;;;;;758131;184;919665;-65
2023/05/31 11:24:01;;;;;;;6.60;3.80;;;;;;;;;;752993;184;919333;-71
2023/05/31 11:26:26;;;;;;;6.03;3.17;;;;;;;;;;755163;183;918921;-64
2023/05/31 11:28:52;;;;;;;7.57;3.73;;;;;;;;;;752219;184;918804;-70
2023/05/31 11:31:18;;;;;;;8.90;3.60;;;;;;;;;;760135;184;916108;-77
2023/05/31 11:33:44;;;;;;;6.97;4.30;;;;;;;;;;751562;183;918882;-71
2023/05/31 11:36:10;;;;;;;10.37;4.37;;;;;;;;;;749455;184;928156;-65
2023/05/31 11:38:36;;;;;;;6.90;3.17;;;;;;;;;;760208;184;636449;-65
2023/05/31 11:41:02;;;;;;;8.67;3.07;;;;;;;;;;752540;184;855151;-76
2023/05/31 11:43:28;;;;;;;5.67;3.03;;;;;;;;;;755673;184;862188;-65
2023/05/31 11:45:54;;;;;;;8.27;3.27;;;;;;;;;;759531;183;629232;-66
2023/05/31 11:48:22;;;;;;;8.80;4.40;;;;;;;;;;753034;184;916544;-71
2023/05/31 11:50:47;;;;;;;7.57;3.33;;;;;;;;;;753423;183;885861;-71
2023/05/31 11:53:13;;;;;;;8.53;4.20;;;;;;;;;;751094;184;919857;-64
2023/05/31 11:55:41;;;;;;;10.00;4.57;;;;;;;;;;748722;181;921955;-71
2023/05/31 11:58:06;;;;;;;8.10;4.07;;;;;;;;;;755494;184;919179;-70
2023/05/31 12:00:31;;;;;;;8.60;3.40;;;;;;;;;;744531;183;921334;-72
2023/05/31 12:02:57;;;;;;;11.03;4.13;;;;;;;;;;770630;181;819238;-64
2023/05/31 12:05:23;;;;;;;7.93;3.65;;;;;;;;;;765926;181;905802;-64
2023/05/31 12:07:49;;;;;;;7.03;3.50;;;;;;;;;;768310;181;868200;-69
2023/05/31 12:10:14;;;;;;;10.27;3.63;;;;;;;;;;767818;181;846730;-70
2023/05/31 12:12:40;;;;;;;8.63;3.80;;;;;;;;;;763852;181;917088;-74
2023/05/31 12:15:07;;;;;;;7.63;3.23;;;;;;;;;;762356;181;914964;-72
2023/05/31 12:17:32;;;;;;;9.00;2.87;;;;;;;;;;766736;181;919580;-65
2023/05/31 12:19:58;;;;;;;6.80;3.43;;;;;;;;;;769335;179;919400;-65
2023/05/31 12:22:24;;;;;;;7.00;4.10;;;;;;;;;;763286;181;922888;-72
2023/05/31 12:24:50;;;;;;;10.33;4.20;;;;;;;;;;765519;181;919091;-72
2023/05/31 12:27:16;;;;;;;7.70;3.70;;;;;;;;;;772471;180;919147;-73
2023/05/31 12:29:42;;;;;;;8.30;4.37;;;;;;;;;;770626;179;918985;-65
2023/05/31 12:32:08;;;;;;;7.40;3.20;;;;;;;;;;765380;181;919325;-65
2023/05/31 12:34:35;;;;;;;8.07;2.60;;;;;;;;;;765536;181;927931;-65
2023/05/31 12:37:00;;;;;;;7.73;3.60;;;;;;;;;;765556;181;919588;-67
2023/05/31 12:39:26;;;;;;;7.53;3.77;;;;;;;;;;766669;181;918532;-65
2023/05/31 12:41:52;;;;;;;10.68;3.65;;;;;;;;;;768724;181;920283;-64
2023/05/31 12:44:20;;;;;;;8.77;4.07;;;;;;;;;;766281;181;920171;-70
2023/05/31 12:46:45;;;;;;;7.30;3.73;;;;;;;;;;763157;183;919266;-72
2023/05/31 12:49:15;;;;;;;5.83;4.13;;;;;;;;;;760902;181;940447;-65
2023/05/31 12:51:40;;;;;;;8.43;3.97;;;;;;;;;;770047;181;919363;-65
2023/05/31 12:54:09;;;;;;;7.70;2.73;;;;;;;;;;757472;181;922373;-65
2023/05/31 12:56:35;;;;;;;7.53;3.47;;;;;;;;;;763162;181;916353;-64
2023/05/31 12:59:01;;;;;;;11.67;4.27;;;;;;;;;;766622;180;839971;-71
2023/05/31 13:01:27;;;;;;;6.80;3.37;;;;;;;;;;771901;178;918966;-71
2023/05/31 13:03:53;;;;;;;6.80;3.30;;;;;;;;;;765525;181;919787;-66
2023/05/31 13:06:19;;;;;;;6.40;3.23;;;;;;;;;;765785;181;917922;-70
2023/05/31 13:08:44;;;;;;;8.60;3.37;;;;;;;;;;771458;181;874181;-64
2023/05/31 13:11:10;;;;;;;3.83;2.87;;;;;;;;;;766028;181;918463;-73
2023/05/31 13:13:36;;;;;;;7.00;2.83;;;;;;;;;;764515;181;919036;-66
2023/05/31 13:16:04;;;;;;;10.27;3.37;;;;;;;;;;769095;181;911198;-70
2023/05/31 13:18:28;;;;;;;13.10;3.63;;;;;;;;;;768880;180;894208;-69
2023/05/31 13:20:54;;;;;;;8.70;3.03;;;;;;;;;;769196;181;918808;-65
2023/05/31 13:23:20;;;;;;;8.68;3.60;;;;;;;;;;763932;185;817007;-64
2023/05/31 13:25:46;;;;;;;5.10;2.63;;;;;;;;;;780462;177;916413;-74
2023/05/31 13:28:12;;;;;;;3.80;2.60;;;;;;;;;;764984;181;919572;-65
2023/05/31 13:30:38;;;;;;;7.43;2.63;;;;;;;;;;766795;181;816551;-64
2023/05/31 13:33:04;;;;;;;5.83;2.50;;;;;;;;;;775577;180;896541;-72
2023/05/31 13:35:30;;;;;;;7.07;3.10;;;;;;;;;;768565;181;916836;-66
2023/05/31 13:37:55;;;;;;;6.80;3.63;;;;;;;;;;767857;181;917223;-64
2023/05/31 13:40:21;;;;;;;7.80;3.30;;;;;;;;;;765873;181;915070;-70
2023/05/31 13:42:47;;;;;;;8.77;3.37;;;;;;;;;;766382;181;813757;-65
2023/05/31 13:45:13;;;;;;;4.97;2.70;;;;;;;;;;766229;181;636409;-65
2023/05/31 13:47:39;;;;;;;8.07;3.60;;;;;;;;;;763749;184;624820;-71
2023/05/31 13:50:05;;;;;;;6.63;3.23;;;;;;;;;;756396;182;919182;-70
2023/05/31 13:52:31;;;;;;;6.53;3.03;;;;;;;;;;765838;180;918671;-71
2023/05/31 13:54:57;;;;;;;6.50;2.90;;;;;;;;;;766985;181;885368;-70
2023/05/31 13:57:22;;;;;;;5.00;2.93;;;;;;;;;;771126;181;1023326;-64
2023/05/31 13:59:48;;;;;;;5.83;3.17;;;;;;;;;;765921;181;920130;-65
2023/05/31 14:02:14;;;;;;;5.30;2.80;;;;;;;;;;770071;180;916013;-63
2023/05/31 14:04:40;;;;;;;5.07;3.20;;;;;;;;;;771604;181;919172;-64
2023/05/31 14:07:06;;;;;;;7.10;3.73;;;;;;;;;;764854;181;919334;-68
2023/05/31 14:09:32;;;;;;;6.87;3.20;;;;;;;;;;759859;181;918901;-64
2023/05/31 14:11:58;;;;;;;8.77;3.07;;;;;;;;;;773079;181;919384;-68
2023/05/31 14:14:23;;;;;;;9.13;2.67;;;;;;;;;;765045;181;923416;-70
2023/05/31 14:16:50;;;;;;;6.80;3.00;;;;;;;;;;763855;180;919503;-65
2023/05/31 14:19:15;;;;;;;6.90;3.47;;;;;;;;;;763803;181;914014;-69